sensor_id;sensor_type;location;lat;lon;timestamp;P1;durP1;ratioP1;P2;durP2;ratioP2
72205;SDS011;60111;48.286;7.812;2022-07-23T00:01:36;8.50;;;6.10;;
72205;SDS011;60111;48.286;7.812;2022-07-23T00:04:09;7.37;;;6.62;;
72205;SDS011;60111;48.286;7.812;2022-07-23T00:06:42;8.55;;;6.30;;
72205;SDS011;60111;48.286;7.812;2022-07-23T00:09:14;8.85;;;6.33;;
72205;SDS011;60111;48.286;7.812;2022-07-23T00:11:47;10.47;;;6.67;;
72205;SDS011;60111;48.286;7.812;2022-07-23T00:14:19;6.58;;;5.90;;
72205;SDS011;60111;48.286;7.812;2022-07-23T00:16:52;9.60;;;6.67;;
72205;SDS011;60111;48.286;7.812;2022-07-23T00:19:24;9.13;;;6.70;;
72205;SDS011;60111;48.286;7.812;2022-07-23T00:21:57;9.10;;;6.37;;
72205;SDS011;60111;48.286;7.812;2022-07-23T00:24:30;7.78;;;6.12;;
72205;SDS011;60111;48.286;7.812;2022-07-23T00:27:02;8.78;;;6.12;;
72205;SDS011;60111;48.286;7.812;2022-07-23T00:29:36;8.74;;;6.76;;
72205;SDS011;60111;48.286;7.812;2022-07-23T00:32:08;11.18;;;7.08;;
72205;SDS011;60111;48.286;7.812;2022-07-23T00:34:41;10.70;;;6.97;;
72205;SDS011;60111;48.286;7.812;2022-07-23T00:37:14;9.65;;;7.08;;
72205;SDS011;60111;48.286;7.812;2022-07-23T00:39:46;9.30;;;7.12;;
72205;SDS011;60111;48.286;7.812;2022-07-23T00:42:19;7.63;;;6.73;;
72205;SDS011;60111;48.286;7.812;2022-07-23T00:44:51;10.75;;;6.90;;
72205;SDS011;60111;48.286;7.812;2022-07-23T00:47:24;8.20;;;6.35;;
72205;SDS011;60111;48.286;7.812;2022-07-23T00:49:57;7.55;;;6.75;;
72205;SDS011;60111;48.286;7.812;2022-07-23T00:52:29;10.13;;;7.30;;
72205;SDS011;60111;48.286;7.812;2022-07-23T00:55:03;10.83;;;7.20;;
72205;SDS011;60111;48.286;7.812;2022-07-23T00:57:37;8.98;;;7.55;;
72205;SDS011;60111;48.286;7.812;2022-07-23T01:00:12;9.55;;;7.80;;
72205;SDS011;60111;48.286;7.812;2022-07-23T01:02:46;8.00;;;6.50;;
72205;SDS011;60111;48.286;7.812;2022-07-23T01:05:18;7.67;;;6.47;;
72205;SDS011;60111;48.286;7.812;2022-07-23T01:07:52;8.58;;;7.15;;
72205;SDS011;60111;48.286;7.812;2022-07-23T01:10:25;8.00;;;6.83;;
72205;SDS011;60111;48.286;7.812;2022-07-23T01:13:06;10.75;;;6.65;;
72205;SDS011;60111;48.286;7.812;2022-07-23T01:15:41;7.70;;;6.90;;
72205;SDS011;60111;48.286;7.812;2022-07-23T01:18:13;8.23;;;6.90;;
72205;SDS011;60111;48.286;7.812;2022-07-23T01:20:46;10.27;;;6.90;;
72205;SDS011;60111;48.286;7.812;2022-07-23T01:23:20;9.10;;;6.77;;
72205;SDS011;60111;48.286;7.812;2022-07-23T01:25:52;7.77;;;6.97;;
72205;SDS011;60111;48.286;7.812;2022-07-23T01:28:25;7.70;;;6.90;;
72205;SDS011;60111;48.286;7.812;2022-07-23T01:30:58;8.55;;;6.85;;
72205;SDS011;60111;48.286;7.812;2022-07-23T01:33:30;12.20;;;7.42;;
72205;SDS011;60111;48.286;7.812;2022-07-23T01:36:03;9.43;;;7.37;;
72205;SDS011;60111;48.286;7.812;2022-07-23T01:38:36;8.13;;;7.33;;
72205;SDS011;60111;48.286;7.812;2022-07-23T01:41:09;8.97;;;7.37;;
72205;SDS011;60111;48.286;7.812;2022-07-23T01:43:41;8.10;;;7.30;;
72205;SDS011;60111;48.286;7.812;2022-07-23T01:46:14;7.80;;;7.00;;
72205;SDS011;60111;48.286;7.812;2022-07-23T01:48:47;10.00;;;7.50;;
72205;SDS011;60111;48.286;7.812;2022-07-23T01:51:19;10.88;;;7.00;;
72205;SDS011;60111;48.286;7.812;2022-07-23T01:53:52;8.25;;;7.12;;
72205;SDS011;60111;48.286;7.812;2022-07-23T01:56:25;9.03;;;7.15;;
72205;SDS011;60111;48.286;7.812;2022-07-23T01:58:57;8.28;;;6.78;;
72205;SDS011;60111;48.286;7.812;2022-07-23T02:01:30;10.60;;;7.50;;
72205;SDS011;60111;48.286;7.812;2022-07-23T02:04:03;8.33;;;7.53;;
72205;SDS011;60111;48.286;7.812;2022-07-23T02:06:35;8.53;;;7.72;;
72205;SDS011;60111;48.286;7.812;2022-07-23T02:09:08;8.05;;;7.30;;
72205;SDS011;60111;48.286;7.812;2022-07-23T02:11:41;7.67;;;6.87;;
72205;SDS011;60111;48.286;7.812;2022-07-23T02:14:14;10.10;;;7.53;;
72205;SDS011;60111;48.286;7.812;2022-07-23T02:16:46;9.05;;;8.10;;
72205;SDS011;60111;48.286;7.812;2022-07-23T02:19:19;9.88;;;7.62;;
72205;SDS011;60111;48.286;7.812;2022-07-23T02:21:52;12.30;;;7.87;;
72205;SDS011;60111;48.286;7.812;2022-07-23T02:24:25;9.63;;;8.03;;
72205;SDS011;60111;48.286;7.812;2022-07-23T02:26:58;9.68;;;7.60;;
72205;SDS011;60111;48.286;7.812;2022-07-23T02:29:30;9.13;;;7.20;;
72205;SDS011;60111;48.286;7.812;2022-07-23T02:32:03;7.90;;;7.10;;
72205;SDS011;60111;48.286;7.812;2022-07-23T02:34:36;10.70;;;7.33;;
72205;SDS011;60111;48.286;7.812;2022-07-23T02:37:08;9.78;;;6.62;;
72205;SDS011;60111;48.286;7.812;2022-07-23T02:39:41;7.83;;;6.65;;
72205;SDS011;60111;48.286;7.812;2022-07-23T02:42:14;13.20;;;7.55;;
72205;SDS011;60111;48.286;7.812;2022-07-23T02:44:48;9.10;;;6.87;;
72205;SDS011;60111;48.286;7.812;2022-07-23T02:47:21;7.40;;;6.70;;
72205;SDS011;60111;48.286;7.812;2022-07-23T02:49:54;7.95;;;6.85;;
72205;SDS011;60111;48.286;7.812;2022-07-23T02:52:26;9.70;;;6.95;;
72205;SDS011;60111;48.286;7.812;2022-07-23T02:54:59;8.90;;;7.17;;
72205;SDS011;60111;48.286;7.812;2022-07-23T02:57:32;8.28;;;6.95;;
72205;SDS011;60111;48.286;7.812;2022-07-23T03:00:06;9.73;;;7.30;;
72205;SDS011;60111;48.286;7.812;2022-07-23T03:02:39;8.18;;;7.37;;
72205;SDS011;60111;48.286;7.812;2022-07-23T03:05:11;8.40;;;7.17;;
72205;SDS011;60111;48.286;7.812;2022-07-23T03:07:44;9.95;;;7.80;;
72205;SDS011;60111;48.286;7.812;2022-07-23T03:10:16;8.00;;;7.20;;
72205;SDS011;60111;48.286;7.812;2022-07-23T03:12:49;9.00;;;7.35;;
72205;SDS011;60111;48.286;7.812;2022-07-23T03:15:22;9.23;;;7.45;;
72205;SDS011;60111;48.286;7.812;2022-07-23T03:17:54;10.38;;;7.20;;
72205;SDS011;60111;48.286;7.812;2022-07-23T03:20:27;8.77;;;7.03;;
72205;SDS011;60111;48.286;7.812;2022-07-23T03:23:00;11.25;;;7.75;;
72205;SDS011;60111;48.286;7.812;2022-07-23T03:25:32;10.90;;;8.43;;
72205;SDS011;60111;48.286;7.812;2022-07-23T03:28:05;9.25;;;7.92;;
72205;SDS011;60111;48.286;7.812;2022-07-23T03:30:38;10.70;;;8.30;;
72205;SDS011;60111;48.286;7.812;2022-07-23T03:33:10;9.34;;;7.90;;
72205;SDS011;60111;48.286;7.812;2022-07-23T03:35:44;14.00;;;8.48;;
72205;SDS011;60111;48.286;7.812;2022-07-23T03:38:18;10.80;;;7.83;;
72205;SDS011;60111;48.286;7.812;2022-07-23T03:40:51;10.72;;;7.60;;
72205;SDS011;60111;48.286;7.812;2022-07-23T03:43:23;13.23;;;8.77;;
72205;SDS011;60111;48.286;7.812;2022-07-23T03:45:56;8.68;;;7.70;;
72205;SDS011;60111;48.286;7.812;2022-07-23T03:48:29;12.93;;;7.90;;
72205;SDS011;60111;48.286;7.812;2022-07-23T03:51:01;9.80;;;7.93;;
72205;SDS011;60111;48.286;7.812;2022-07-23T03:53:34;9.83;;;8.13;;
72205;SDS011;60111;48.286;7.812;2022-07-23T03:56:07;9.20;;;7.50;;
72205;SDS011;60111;48.286;7.812;2022-07-23T03:58:39;10.23;;;7.50;;
72205;SDS011;60111;48.286;7.812;2022-07-23T04:01:12;13.83;;;8.53;;
72205;SDS011;60111;48.286;7.812;2022-07-23T04:03:45;8.83;;;7.93;;
72205;SDS011;60111;48.286;7.812;2022-07-23T04:06:18;8.78;;;7.80;;
72205;SDS011;60111;48.286;7.812;2022-07-23T04:08:50;10.67;;;8.07;;
72205;SDS011;60111;48.286;7.812;2022-07-23T04:11:23;8.98;;;7.75;;
72205;SDS011;60111;48.286;7.812;2022-07-23T04:13:55;9.43;;;8.05;;
72205;SDS011;60111;48.286;7.812;2022-07-23T04:16:28;10.85;;;7.78;;
72205;SDS011;60111;48.286;7.812;2022-07-23T04:19:02;8.47;;;7.57;;
72205;SDS011;60111;48.286;7.812;2022-07-23T04:21:35;9.95;;;7.35;;
72205;SDS011;60111;48.286;7.812;2022-07-23T04:24:08;9.77;;;7.43;;
72205;SDS011;60111;48.286;7.812;2022-07-23T04:26:41;9.15;;;8.15;;
72205;SDS011;60111;48.286;7.812;2022-07-23T04:29:13;11.93;;;7.92;;
72205;SDS011;60111;48.286;7.812;2022-07-23T04:31:46;10.23;;;7.95;;
72205;SDS011;60111;48.286;7.812;2022-07-23T04:34:18;9.60;;;8.60;;
72205;SDS011;60111;48.286;7.812;2022-07-23T04:36:51;11.07;;;8.20;;
72205;SDS011;60111;48.286;7.812;2022-07-23T04:39:24;10.82;;;7.87;;
72205;SDS011;60111;48.286;7.812;2022-07-23T04:41:57;12.03;;;7.83;;
72205;SDS011;60111;48.286;7.812;2022-07-23T04:44:29;7.90;;;7.00;;
72205;SDS011;60111;48.286;7.812;2022-07-23T04:47:02;11.38;;;7.90;;
72205;SDS011;60111;48.286;7.812;2022-07-23T04:49:36;9.75;;;7.50;;
72205;SDS011;60111;48.286;7.812;2022-07-23T04:52:08;9.75;;;7.20;;
72205;SDS011;60111;48.286;7.812;2022-07-23T04:54:41;10.50;;;8.07;;
72205;SDS011;60111;48.286;7.812;2022-07-23T04:57:13;10.25;;;7.90;;
72205;SDS011;60111;48.286;7.812;2022-07-23T04:59:46;8.68;;;7.70;;
72205;SDS011;60111;48.286;7.812;2022-07-23T05:02:19;10.80;;;8.20;;
72205;SDS011;60111;48.286;7.812;2022-07-23T05:04:51;8.63;;;7.40;;
72205;SDS011;60111;48.286;7.812;2022-07-23T05:07:24;11.28;;;7.70;;
72205;SDS011;60111;48.286;7.812;2022-07-23T05:09:56;9.78;;;7.85;;
72205;SDS011;60111;48.286;7.812;2022-07-23T05:12:29;9.38;;;7.70;;
72205;SDS011;60111;48.286;7.812;2022-07-23T05:15:03;9.08;;;7.60;;
72205;SDS011;60111;48.286;7.812;2022-07-23T05:17:36;8.83;;;7.93;;
72205;SDS011;60111;48.286;7.812;2022-07-23T05:20:09;8.33;;;7.10;;
72205;SDS011;60111;48.286;7.812;2022-07-23T05:22:42;8.13;;;6.60;;
72205;SDS011;60111;48.286;7.812;2022-07-23T05:25:15;8.17;;;7.37;;
72205;SDS011;60111;48.286;7.812;2022-07-23T05:27:47;8.85;;;7.20;;
72205;SDS011;60111;48.286;7.812;2022-07-23T05:30:20;8.05;;;7.25;;
72205;SDS011;60111;48.286;7.812;2022-07-23T05:32:53;11.47;;;7.57;;
72205;SDS011;60111;48.286;7.812;2022-07-23T05:35:25;8.40;;;7.00;;
72205;SDS011;60111;48.286;7.812;2022-07-23T05:37:58;8.83;;;7.70;;
72205;SDS011;60111;48.286;7.812;2022-07-23T05:40:31;9.45;;;7.80;;
72205;SDS011;60111;48.286;7.812;2022-07-23T05:43:03;14.03;;;8.75;;
72205;SDS011;60111;48.286;7.812;2022-07-23T05:45:36;9.10;;;8.30;;
72205;SDS011;60111;48.286;7.812;2022-07-23T05:48:09;13.13;;;9.70;;
72205;SDS011;60111;48.286;7.812;2022-07-23T05:50:41;10.18;;;8.65;;
72205;SDS011;60111;48.286;7.812;2022-07-23T05:53:14;14.90;;;11.40;;
72205;SDS011;60111;48.286;7.812;2022-07-23T05:55:47;12.53;;;11.00;;
72205;SDS011;60111;48.286;7.812;2022-07-23T05:58:19;16.17;;;11.08;;
72205;SDS011;60111;48.286;7.812;2022-07-23T06:00:52;12.23;;;11.03;;
72205;SDS011;60111;48.286;7.812;2022-07-23T06:03:25;11.97;;;10.07;;
72205;SDS011;60111;48.286;7.812;2022-07-23T06:05:57;11.40;;;10.20;;
72205;SDS011;60111;48.286;7.812;2022-07-23T06:08:30;13.15;;;10.28;;
72205;SDS011;60111;48.286;7.812;2022-07-23T06:11:03;11.18;;;9.98;;
72205;SDS011;60111;48.286;7.812;2022-07-23T06:13:36;11.43;;;9.98;;
72205;SDS011;60111;48.286;7.812;2022-07-23T06:16:08;13.93;;;9.58;;
72205;SDS011;60111;48.286;7.812;2022-07-23T06:18:41;14.96;;;9.56;;
72205;SDS011;60111;48.286;7.812;2022-07-23T06:21:14;13.70;;;10.13;;
72205;SDS011;60111;48.286;7.812;2022-07-23T06:23:47;11.65;;;9.95;;
72205;SDS011;60111;48.286;7.812;2022-07-23T06:26:19;13.58;;;10.05;;
72205;SDS011;60111;48.286;7.812;2022-07-23T06:28:52;11.83;;;8.80;;
72205;SDS011;60111;48.286;7.812;2022-07-23T06:31:25;15.70;;;11.57;;
72205;SDS011;60111;48.286;7.812;2022-07-23T06:33:57;11.97;;;10.60;;
72205;SDS011;60111;48.286;7.812;2022-07-23T06:36:30;13.53;;;10.13;;
72205;SDS011;60111;48.286;7.812;2022-07-23T06:39:03;13.28;;;9.33;;
72205;SDS011;60111;48.286;7.812;2022-07-23T06:41:36;11.48;;;9.45;;
72205;SDS011;60111;48.286;7.812;2022-07-23T06:44:09;11.00;;;7.65;;
72205;SDS011;60111;48.286;7.812;2022-07-23T06:46:41;14.40;;;9.33;;
72205;SDS011;60111;48.286;7.812;2022-07-23T06:49:14;10.28;;;7.90;;
72205;SDS011;60111;48.286;7.812;2022-07-23T06:51:46;10.93;;;9.28;;
72205;SDS011;60111;48.286;7.812;2022-07-23T06:54:19;11.38;;;9.40;;
72205;SDS011;60111;48.286;7.812;2022-07-23T06:56:52;11.20;;;9.10;;
72205;SDS011;60111;48.286;7.812;2022-07-23T06:59:25;13.60;;;9.43;;
72205;SDS011;60111;48.286;7.812;2022-07-23T07:01:57;10.40;;;8.70;;
72205;SDS011;60111;48.286;7.812;2022-07-23T07:04:30;11.38;;;8.63;;
72205;SDS011;60111;48.286;7.812;2022-07-23T07:07:03;10.60;;;9.20;;
72205;SDS011;60111;48.286;7.812;2022-07-23T07:09:36;10.50;;;8.65;;
72205;SDS011;60111;48.286;7.812;2022-07-23T07:12:09;10.63;;;8.70;;
72205;SDS011;60111;48.286;7.812;2022-07-23T07:14:42;10.40;;;8.37;;
72205;SDS011;60111;48.286;7.812;2022-07-23T07:17:15;9.08;;;7.60;;
72205;SDS011;60111;48.286;7.812;2022-07-23T07:19:47;11.33;;;8.85;;
72205;SDS011;60111;48.286;7.812;2022-07-23T07:22:20;9.67;;;7.73;;
72205;SDS011;60111;48.286;7.812;2022-07-23T07:24:53;9.78;;;7.67;;
72205;SDS011;60111;48.286;7.812;2022-07-23T07:27:25;9.60;;;7.97;;
72205;SDS011;60111;48.286;7.812;2022-07-23T07:29:58;10.25;;;7.50;;
72205;SDS011;60111;48.286;7.812;2022-07-23T07:32:31;8.88;;;7.70;;
72205;SDS011;60111;48.286;7.812;2022-07-23T07:35:04;13.68;;;7.85;;
72205;SDS011;60111;48.286;7.812;2022-07-23T07:37:37;9.20;;;7.23;;
72205;SDS011;60111;48.286;7.812;2022-07-23T07:40:09;9.55;;;7.60;;
72205;SDS011;60111;48.286;7.812;2022-07-23T07:42:51;10.73;;;7.63;;
72205;SDS011;60111;48.286;7.812;2022-07-23T07:45:20;11.13;;;7.83;;
72205;SDS011;60111;48.286;7.812;2022-07-23T07:47:53;8.73;;;6.97;;
72205;SDS011;60111;48.286;7.812;2022-07-23T07:50:26;10.48;;;7.12;;
72205;SDS011;60111;48.286;7.812;2022-07-23T07:52:59;7.85;;;7.12;;
72205;SDS011;60111;48.286;7.812;2022-07-23T07:55:32;10.58;;;7.10;;
72205;SDS011;60111;48.286;7.812;2022-07-23T07:58:04;8.35;;;6.75;;
72205;SDS011;60111;48.286;7.812;2022-07-23T08:00:40;7.55;;;6.85;;
72205;SDS011;60111;48.286;7.812;2022-07-23T08:03:13;11.15;;;7.45;;
72205;SDS011;60111;48.286;7.812;2022-07-23T08:05:45;7.60;;;6.90;;
72205;SDS011;60111;48.286;7.812;2022-07-23T08:08:18;9.18;;;7.05;;
72205;SDS011;60111;48.286;7.812;2022-07-23T08:10:50;8.07;;;6.43;;
72205;SDS011;60111;48.286;7.812;2022-07-23T08:13:23;8.30;;;7.08;;
72205;SDS011;60111;48.286;7.812;2022-07-23T08:15:56;8.63;;;7.08;;
72205;SDS011;60111;48.286;7.812;2022-07-23T08:18:28;7.53;;;6.17;;
72205;SDS011;60111;48.286;7.812;2022-07-23T08:21:01;7.85;;;6.42;;
72205;SDS011;60111;48.286;7.812;2022-07-23T08:23:35;7.25;;;6.62;;
72205;SDS011;60111;48.286;7.812;2022-07-23T08:26:07;7.83;;;6.25;;
72205;SDS011;60111;48.286;7.812;2022-07-23T08:28:40;8.27;;;6.83;;
72205;SDS011;60111;48.286;7.812;2022-07-23T08:31:13;8.03;;;6.60;;
72205;SDS011;60111;48.286;7.812;2022-07-23T08:33:47;8.67;;;7.27;;
72205;SDS011;60111;48.286;7.812;2022-07-23T08:36:19;8.53;;;6.28;;
72205;SDS011;60111;48.286;7.812;2022-07-23T08:38:52;8.00;;;6.53;;
72205;SDS011;60111;48.286;7.812;2022-07-23T08:43:57;7.58;;;6.28;;
72205;SDS011;60111;48.286;7.812;2022-07-23T08:46:31;10.05;;;6.30;;
72205;SDS011;60111;48.286;7.812;2022-07-23T08:49:04;6.50;;;5.90;;
72205;SDS011;60111;48.286;7.812;2022-07-23T08:51:38;7.67;;;6.73;;
72205;SDS011;60111;48.286;7.812;2022-07-23T08:54:10;8.43;;;6.55;;
72205;SDS011;60111;48.286;7.812;2022-07-23T08:56:43;7.83;;;6.45;;
72205;SDS011;60111;48.286;7.812;2022-07-23T08:59:16;7.07;;;6.37;;
72205;SDS011;60111;48.286;7.812;2022-07-23T09:01:48;9.70;;;6.37;;
72205;SDS011;60111;48.286;7.812;2022-07-23T09:04:21;6.42;;;5.35;;
72205;SDS011;60111;48.286;7.812;2022-07-23T09:06:54;7.70;;;6.17;;
72205;SDS011;60111;48.286;7.812;2022-07-23T09:09:28;8.38;;;6.00;;
72205;SDS011;60111;48.286;7.812;2022-07-23T09:12:08;5.90;;;5.35;;
72205;SDS011;60111;48.286;7.812;2022-07-23T09:14:42;7.08;;;5.85;;
72205;SDS011;60111;48.286;7.812;2022-07-23T09:17:19;6.12;;;5.58;;
72205;SDS011;60111;48.286;7.812;2022-07-23T09:19:52;7.58;;;5.70;;
72205;SDS011;60111;48.286;7.812;2022-07-23T09:22:28;7.22;;;6.10;;
72205;SDS011;60111;48.286;7.812;2022-07-23T09:25:08;7.58;;;6.20;;
72205;SDS011;60111;48.286;7.812;2022-07-23T09:30:26;6.80;;;5.63;;
72205;SDS011;60111;48.286;7.812;2022-07-23T09:33:04;6.58;;;5.47;;
72205;SDS011;60111;48.286;7.812;2022-07-23T09:35:44;9.37;;;5.93;;
72205;SDS011;60111;48.286;7.812;2022-07-23T09:38:25;7.17;;;6.08;;
72205;SDS011;60111;48.286;7.812;2022-07-23T09:41:07;6.90;;;6.17;;
72205;SDS011;60111;48.286;7.812;2022-07-23T09:43:44;7.20;;;6.33;;
72205;SDS011;60111;48.286;7.812;2022-07-23T09:46:20;8.18;;;6.05;;
72205;SDS011;60111;48.286;7.812;2022-07-23T09:48:57;7.72;;;6.17;;
72205;SDS011;60111;48.286;7.812;2022-07-23T09:51:32;9.48;;;6.37;;
72205;SDS011;60111;48.286;7.812;2022-07-23T09:54:07;7.47;;;6.00;;
72205;SDS011;60111;48.286;7.812;2022-07-23T09:56:43;7.05;;;5.75;;
72205;SDS011;60111;48.286;7.812;2022-07-23T09:59:16;9.20;;;5.75;;
72205;SDS011;60111;48.286;7.812;2022-07-23T10:01:50;6.72;;;5.40;;
72205;SDS011;60111;48.286;7.812;2022-07-23T10:04:24;9.05;;;5.90;;
72205;SDS011;60111;48.286;7.812;2022-07-23T10:07:00;8.83;;;6.37;;
72205;SDS011;60111;48.286;7.812;2022-07-23T10:09:35;6.58;;;5.25;;
72205;SDS011;60111;48.286;7.812;2022-07-23T10:12:14;9.33;;;5.78;;
72205;SDS011;60111;48.286;7.812;2022-07-23T10:15:00;14.78;;;6.12;;
72205;SDS011;60111;48.286;7.812;2022-07-23T10:17:30;8.00;;;5.67;;
72205;SDS011;60111;48.286;7.812;2022-07-23T10:20:04;6.78;;;5.30;;
72205;SDS011;60111;48.286;7.812;2022-07-23T10:22:38;7.42;;;5.50;;
72205;SDS011;60111;48.286;7.812;2022-07-23T10:33:46;8.68;;;5.70;;
72205;SDS011;60111;48.286;7.812;2022-07-23T10:36:35;7.40;;;6.03;;
72205;SDS011;60111;48.286;7.812;2022-07-23T10:39:22;9.75;;;5.87;;
72205;SDS011;60111;48.286;7.812;2022-07-23T10:42:13;6.25;;;5.45;;
72205;SDS011;60111;48.286;7.812;2022-07-23T10:44:48;8.37;;;6.17;;
72205;SDS011;60111;48.286;7.812;2022-07-23T10:50:16;7.75;;;6.03;;
72205;SDS011;60111;48.286;7.812;2022-07-23T10:52:37;8.73;;;6.60;;
72205;SDS011;60111;48.286;7.812;2022-07-23T10:58:02;7.53;;;6.60;;
72205;SDS011;60111;48.286;7.812;2022-07-23T11:00:37;8.78;;;7.00;;
72205;SDS011;60111;48.286;7.812;2022-07-23T11:03:33;8.20;;;6.58;;
72205;SDS011;60111;48.286;7.812;2022-07-23T11:06:04;9.07;;;6.53;;
72205;SDS011;60111;48.286;7.812;2022-07-23T11:08:38;9.23;;;6.40;;
72205;SDS011;60111;48.286;7.812;2022-07-23T11:11:10;7.22;;;6.53;;
72205;SDS011;60111;48.286;7.812;2022-07-23T11:13:46;8.35;;;6.47;;
72205;SDS011;60111;48.286;7.812;2022-07-23T11:16:20;7.92;;;6.33;;
72205;SDS011;60111;48.286;7.812;2022-07-23T11:18:56;7.50;;;6.70;;
72205;SDS011;60111;48.286;7.812;2022-07-23T11:24:13;7.15;;;6.35;;
72205;SDS011;60111;48.286;7.812;2022-07-23T11:26:52;9.73;;;6.45;;
72205;SDS011;60111;48.286;7.812;2022-07-23T11:32:08;9.48;;;7.03;;
72205;SDS011;60111;48.286;7.812;2022-07-23T11:34:51;8.93;;;6.35;;
72205;SDS011;60111;48.286;7.812;2022-07-23T11:40:08;10.67;;;6.80;;
72205;SDS011;60111;48.286;7.812;2022-07-23T11:42:54;7.55;;;6.15;;
72205;SDS011;60111;48.286;7.812;2022-07-23T11:45:32;10.43;;;6.40;;
72205;SDS011;60111;48.286;7.812;2022-07-23T11:48:16;10.38;;;7.05;;
72205;SDS011;60111;48.286;7.812;2022-07-23T11:50:51;9.63;;;7.00;;
72205;SDS011;60111;48.286;7.812;2022-07-23T11:53:26;7.92;;;6.85;;
72205;SDS011;60111;48.286;7.812;2022-07-23T11:56:10;7.12;;;6.45;;
72205;SDS011;60111;48.286;7.812;2022-07-23T11:58:39;10.28;;;6.30;;
72205;SDS011;60111;48.286;7.812;2022-07-23T12:01:14;8.03;;;6.50;;
72205;SDS011;60111;48.286;7.812;2022-07-23T12:03:50;9.75;;;6.67;;
72205;SDS011;60111;48.286;7.812;2022-07-23T12:06:24;8.93;;;6.58;;
72205;SDS011;60111;48.286;7.812;2022-07-23T12:08:56;8.87;;;6.33;;
72205;SDS011;60111;48.286;7.812;2022-07-23T12:11:29;8.18;;;6.53;;
72205;SDS011;60111;48.286;7.812;2022-07-23T12:14:02;6.93;;;6.20;;
72205;SDS011;60111;48.286;7.812;2022-07-23T12:16:34;7.20;;;6.40;;
72205;SDS011;60111;48.286;7.812;2022-07-23T12:19:07;7.20;;;6.50;;
72205;SDS011;60111;48.286;7.812;2022-07-23T12:21:40;10.60;;;6.55;;
72205;SDS011;60111;48.286;7.812;2022-07-23T12:24:13;7.40;;;5.43;;
72205;SDS011;60111;48.286;7.812;2022-07-23T12:27:07;8.43;;;6.78;;
72205;SDS011;60111;48.286;7.812;2022-07-23T12:29:37;10.93;;;6.83;;
72205;SDS011;60111;48.286;7.812;2022-07-23T12:32:22;7.10;;;6.28;;
72205;SDS011;60111;48.286;7.812;2022-07-23T12:35:06;9.73;;;6.73;;
72205;SDS011;60111;48.286;7.812;2022-07-23T12:37:37;6.55;;;5.85;;
72205;SDS011;60111;48.286;7.812;2022-07-23T12:40:18;7.37;;;6.20;;
72205;SDS011;60111;48.286;7.812;2022-07-23T12:42:57;10.23;;;6.90;;
72205;SDS011;60111;48.286;7.812;2022-07-23T12:45:42;8.55;;;6.45;;
72205;SDS011;60111;48.286;7.812;2022-07-23T12:48:28;7.22;;;6.30;;
72205;SDS011;60111;48.286;7.812;2022-07-23T12:50:58;10.03;;;6.50;;
72205;SDS011;60111;48.286;7.812;2022-07-23T12:53:39;8.08;;;6.17;;
72205;SDS011;60111;48.286;7.812;2022-07-23T12:56:17;11.18;;;5.80;;
72205;SDS011;60111;48.286;7.812;2022-07-23T12:58:52;7.37;;;6.25;;
72205;SDS011;60111;48.286;7.812;2022-07-23T13:01:28;8.80;;;6.35;;
72205;SDS011;60111;48.286;7.812;2022-07-23T13:04:17;6.65;;;5.80;;
72205;SDS011;60111;48.286;7.812;2022-07-23T13:06:51;8.53;;;6.25;;
72205;SDS011;60111;48.286;7.812;2022-07-23T13:09:25;8.30;;;6.30;;
72205;SDS011;60111;48.286;7.812;2022-07-23T13:12:00;6.60;;;6.00;;
72205;SDS011;60111;48.286;7.812;2022-07-23T13:14:32;8.67;;;6.53;;
72205;SDS011;60111;48.286;7.812;2022-07-23T13:17:05;6.90;;;6.20;;
72205;SDS011;60111;48.286;7.812;2022-07-23T13:19:38;7.17;;;6.13;;
72205;SDS011;60111;48.286;7.812;2022-07-23T13:22:10;8.33;;;6.72;;
72205;SDS011;60111;48.286;7.812;2022-07-23T13:24:43;8.25;;;6.72;;
72205;SDS011;60111;48.286;7.812;2022-07-23T13:27:16;7.08;;;6.40;;
72205;SDS011;60111;48.286;7.812;2022-07-23T13:29:48;7.80;;;5.78;;
72205;SDS011;60111;48.286;7.812;2022-07-23T13:32:21;7.73;;;5.97;;
72205;SDS011;60111;48.286;7.812;2022-07-23T13:34:54;7.43;;;6.27;;
72205;SDS011;60111;48.286;7.812;2022-07-23T13:37:26;7.85;;;6.28;;
72205;SDS011;60111;48.286;7.812;2022-07-23T13:39:59;9.20;;;6.30;;
72205;SDS011;60111;48.286;7.812;2022-07-23T13:42:32;7.95;;;6.10;;
72205;SDS011;60111;48.286;7.812;2022-07-23T13:45:05;6.83;;;6.12;;
72205;SDS011;60111;48.286;7.812;2022-07-23T13:47:38;7.15;;;6.33;;
72205;SDS011;60111;48.286;7.812;2022-07-23T13:50:11;12.00;;;6.23;;
72205;SDS011;60111;48.286;7.812;2022-07-23T13:52:45;6.70;;;6.10;;
72205;SDS011;60111;48.286;7.812;2022-07-23T13:55:18;8.33;;;6.80;;
72205;SDS011;60111;48.286;7.812;2022-07-23T13:57:51;7.50;;;6.50;;
72205;SDS011;60111;48.286;7.812;2022-07-23T14:00:24;7.25;;;5.92;;
72205;SDS011;60111;48.286;7.812;2022-07-23T14:02:57;7.15;;;6.45;;
72205;SDS011;60111;48.286;7.812;2022-07-23T14:05:30;8.37;;;6.50;;
72205;SDS011;60111;48.286;7.812;2022-07-23T14:08:03;7.53;;;6.13;;
72205;SDS011;60111;48.286;7.812;2022-07-23T14:10:37;6.77;;;6.07;;
72205;SDS011;60111;48.286;7.812;2022-07-23T14:15:42;8.90;;;6.45;;
72205;SDS011;60111;48.286;7.812;2022-07-23T14:18:15;10.15;;;6.20;;
72205;SDS011;60111;48.286;7.812;2022-07-23T14:20:48;7.70;;;6.40;;
72205;SDS011;60111;48.286;7.812;2022-07-23T14:23:21;8.33;;;6.43;;
72205;SDS011;60111;48.286;7.812;2022-07-23T14:25:53;8.83;;;6.45;;
72205;SDS011;60111;48.286;7.812;2022-07-23T14:28:26;6.90;;;6.23;;
72205;SDS011;60111;48.286;7.812;2022-07-23T14:30:59;9.20;;;6.40;;
72205;SDS011;60111;48.286;7.812;2022-07-23T14:33:31;7.70;;;6.40;;
72205;SDS011;60111;48.286;7.812;2022-07-23T14:36:04;9.40;;;6.00;;
72205;SDS011;60111;48.286;7.812;2022-07-23T14:38:37;6.70;;;5.93;;
72205;SDS011;60111;48.286;7.812;2022-07-23T14:41:10;6.78;;;5.62;;
72205;SDS011;60111;48.286;7.812;2022-07-23T14:43:42;7.05;;;6.05;;
72205;SDS011;60111;48.286;7.812;2022-07-23T14:46:15;7.33;;;6.13;;
72205;SDS011;60111;48.286;7.812;2022-07-23T14:48:48;7.20;;;6.47;;
72205;SDS011;60111;48.286;7.812;2022-07-23T14:51:20;6.80;;;6.10;;
72205;SDS011;60111;48.286;7.812;2022-07-23T14:53:53;7.37;;;6.33;;
72205;SDS011;60111;48.286;7.812;2022-07-23T14:56:26;8.63;;;6.08;;
72205;SDS011;60111;48.286;7.812;2022-07-23T14:58:58;7.58;;;6.22;;
72205;SDS011;60111;48.286;7.812;2022-07-23T15:01:31;7.62;;;6.28;;
72205;SDS011;60111;48.286;7.812;2022-07-23T15:04:05;7.07;;;6.10;;
72205;SDS011;60111;48.286;7.812;2022-07-23T15:09:10;6.55;;;5.67;;
72205;SDS011;60111;48.286;7.812;2022-07-23T15:11:42;7.07;;;6.37;;
72205;SDS011;60111;48.286;7.812;2022-07-23T15:14:15;6.60;;;5.90;;
72205;SDS011;60111;48.286;7.812;2022-07-23T15:16:47;9.83;;;6.47;;
72205;SDS011;60111;48.286;7.812;2022-07-23T15:19:20;7.70;;;6.27;;
72205;SDS011;60111;48.286;7.812;2022-07-23T15:21:53;7.67;;;6.10;;
72205;SDS011;60111;48.286;7.812;2022-07-23T15:24:26;6.63;;;5.93;;
72205;SDS011;60111;48.286;7.812;2022-07-23T15:26:59;6.40;;;5.73;;
72205;SDS011;60111;48.286;7.812;2022-07-23T15:29:32;12.23;;;6.05;;
72205;SDS011;60111;48.286;7.812;2022-07-23T15:32:05;7.12;;;5.80;;
72205;SDS011;60111;48.286;7.812;2022-07-23T15:34:38;8.98;;;6.18;;
72205;SDS011;60111;48.286;7.812;2022-07-23T15:37:10;6.90;;;6.20;;
72205;SDS011;60111;48.286;7.812;2022-07-23T15:39:43;8.83;;;6.53;;
72205;SDS011;60111;48.286;7.812;2022-07-23T15:42:16;8.13;;;6.20;;
72205;SDS011;60111;48.286;7.812;2022-07-23T15:44:49;6.22;;;5.62;;
72205;SDS011;60111;48.286;7.812;2022-07-23T15:47:22;8.10;;;6.37;;
72205;SDS011;60111;48.286;7.812;2022-07-23T15:49:55;6.58;;;5.97;;
72205;SDS011;60111;48.286;7.812;2022-07-23T15:52:27;7.43;;;6.03;;
72205;SDS011;60111;48.286;7.812;2022-07-23T15:55:00;6.67;;;6.05;;